createdAt,value
2019-05-20T00:00:06.571Z,15.93
2019-05-20T00:02:41.238Z,8.80
2019-05-20T00:05:16.002Z,7.67
2019-05-20T00:07:50.635Z,8.78
2019-05-20T00:10:25.389Z,7.20
2019-05-20T00:13:00.034Z,8.05
2019-05-20T00:15:34.795Z,7.47
2019-05-20T00:18:09.587Z,11.22
2019-05-20T00:20:44.278Z,10.68
2019-05-20T00:23:19.009Z,12.43
2019-05-20T00:25:53.758Z,7.12
2019-05-20T00:28:28.542Z,6.80
2019-05-20T00:31:03.231Z,13.10
2019-05-20T00:33:38.003Z,7.60
2019-05-20T00:36:12.646Z,8.00
2019-05-20T00:38:49.077Z,5.22
2019-05-20T00:41:23.763Z,6.00
2019-05-20T00:43:58.482Z,7.37
2019-05-20T00:46:33.092Z,5.70
2019-05-20T00:49:07.883Z,7.97
2019-05-20T00:51:42.635Z,9.58
2019-05-20T00:54:17.495Z,6.42
2019-05-20T00:56:52.947Z,6.58
2019-05-20T00:59:27.608Z,7.92
2019-05-20T01:02:02.287Z,6.42
2019-05-20T01:04:37.013Z,5.92
2019-05-20T01:07:11.774Z,5.95
2019-05-20T01:09:46.575Z,5.17
2019-05-20T01:12:21.404Z,5.47
2019-05-20T01:14:56.245Z,6.15
2019-05-20T01:17:30.925Z,4.67
2019-05-20T01:20:06.921Z,4.30
2019-05-20T01:22:41.678Z,5.85
2019-05-20T01:25:16.468Z,3.80
2019-05-20T01:27:51.116Z,4.60
2019-05-20T01:30:25.880Z,5.50
2019-05-20T01:33:12.710Z,5.22
2019-05-20T01:35:36.991Z,5.12
2019-05-20T01:38:11.682Z,5.40
2019-05-20T01:40:46.412Z,5.65
2019-05-20T01:43:21.123Z,6.35
2019-05-20T01:45:55.815Z,7.92
2019-05-20T01:48:30.504Z,6.50
2019-05-20T01:51:05.291Z,6.15
2019-05-20T01:53:40.059Z,5.60
2019-05-20T01:56:14.703Z,6.92
2019-05-20T01:58:49.389Z,7.25
2019-05-20T02:01:24.073Z,7.15
2019-05-20T02:03:58.876Z,5.97
2019-05-20T02:06:33.701Z,6.00
2019-05-20T02:09:09.359Z,7.60
2019-05-20T02:11:44.146Z,6.67
2019-05-20T02:14:20.515Z,5.30
2019-05-20T02:16:55.223Z,5.40
2019-05-20T02:19:29.915Z,5.40
2019-05-20T02:22:04.714Z,5.15
2019-05-20T02:24:39.472Z,4.08
2019-05-20T02:27:14.257Z,3.33
2019-05-20T02:29:48.886Z,4.10
2019-05-20T02:32:24.575Z,2.98
2019-05-20T02:34:59.261Z,2.55
2019-05-20T02:37:34.049Z,3.05
2019-05-20T02:40:09.708Z,4.25
2019-05-20T02:42:44.428Z,3.85
2019-05-20T02:45:19.188Z,2.52
2019-05-20T02:47:53.994Z,2.72
2019-05-20T02:50:28.668Z,3.83
2019-05-20T02:53:03.486Z,3.70
2019-05-20T02:55:38.249Z,3.35
2019-05-20T02:58:13.054Z,3.98
2019-05-20T03:00:47.814Z,4.00
2019-05-20T03:03:22.607Z,2.37
2019-05-20T03:05:57.363Z,3.17
2019-05-20T03:08:32.175Z,2.30
2019-05-20T03:11:06.911Z,4.05
2019-05-20T03:13:41.640Z,2.67
2019-05-20T03:16:16.410Z,2.33
2019-05-20T03:18:51.203Z,2.62
2019-05-20T03:21:25.896Z,3.05
2019-05-20T03:24:00.689Z,2.50
2019-05-20T03:26:35.450Z,2.47
2019-05-20T03:29:10.254Z,2.52
2019-05-20T03:31:44.956Z,2.77
2019-05-20T03:34:44.156Z,1.72
2019-05-20T03:36:56.085Z,1.75
2019-05-20T03:39:31.704Z,1.57
2019-05-20T03:42:06.403Z,2.77
2019-05-20T03:44:41.110Z,3.42
2019-05-20T03:47:15.802Z,5.95
2019-05-20T03:49:50.587Z,3.37
2019-05-20T03:52:25.199Z,3.17
2019-05-20T03:54:59.926Z,4.70
2019-05-20T03:57:34.691Z,3.72
2019-05-20T04:00:10.205Z,4.42
2019-05-20T04:02:44.865Z,2.90
2019-05-20T04:05:19.583Z,3.15
2019-05-20T04:07:54.266Z,2.83
2019-05-20T04:10:28.977Z,3.20
2019-05-20T04:13:03.730Z,3.45
2019-05-20T04:15:38.454Z,2.77
2019-05-20T04:18:13.145Z,3.27
2019-05-20T04:20:47.943Z,3.52
2019-05-20T04:23:22.766Z,3.30
2019-05-20T04:25:57.575Z,3.83
2019-05-20T04:28:32.196Z,3.72
2019-05-20T04:31:06.928Z,4.65
2019-05-20T04:33:41.610Z,3.08
2019-05-20T04:36:16.425Z,4.95
2019-05-20T04:38:52.813Z,3.40
2019-05-20T04:41:27.600Z,4.05
2019-05-20T04:44:02.458Z,5.40
2019-05-20T04:46:37.330Z,6.50
2019-05-20T04:49:12.098Z,3.95
2019-05-20T04:51:46.882Z,3.85
2019-05-20T04:54:21.639Z,3.90
2019-05-20T04:56:56.311Z,3.37
2019-05-20T04:59:31.035Z,6.03
2019-05-20T05:02:05.836Z,4.40
2019-05-20T05:04:40.440Z,4.47
2019-05-20T05:07:15.234Z,3.77
2019-05-20T05:09:49.982Z,3.08
2019-05-20T05:12:24.844Z,5.12
2019-05-20T05:14:59.599Z,3.40
2019-05-20T05:17:34.393Z,4.58
2019-05-20T05:20:17.535Z,5.17
2019-05-20T05:22:45.911Z,3.25
2019-05-20T05:25:20.663Z,3.52
2019-05-20T05:27:55.457Z,3.98
2019-05-20T05:30:30.206Z,3.58
2019-05-20T05:33:05.011Z,4.05
2019-05-20T05:35:52.268Z,4.45
2019-05-20T05:38:16.926Z,4.97
2019-05-20T05:40:51.615Z,9.50
2019-05-20T05:43:26.332Z,7.25
2019-05-20T05:46:01.092Z,7.47
2019-05-20T05:48:35.822Z,7.80
2019-05-20T05:51:10.587Z,7.28
2019-05-20T05:53:45.271Z,7.83
2019-05-20T05:56:19.925Z,9.20
2019-05-20T05:58:54.718Z,8.43
2019-05-20T06:01:29.483Z,8.23
2019-05-20T06:04:04.285Z,8.65
2019-05-20T06:06:39.040Z,7.72
2019-05-20T06:09:13.842Z,7.78
2019-05-20T06:11:48.607Z,9.00
2019-05-20T06:14:23.409Z,7.60
2019-05-20T06:16:58.025Z,6.92
2019-05-20T06:19:32.817Z,7.50
2019-05-20T06:22:07.502Z,8.68
2019-05-20T06:24:42.246Z,9.60
2019-05-20T06:27:17.001Z,9.85
2019-05-20T06:29:51.782Z,8.80
2019-05-20T06:32:26.618Z,8.73
2019-05-20T06:35:01.688Z,9.93
2019-05-20T06:37:38.919Z,10.53
2019-05-20T06:40:14.116Z,12.63
2019-05-20T06:42:48.888Z,15.35
2019-05-20T06:45:23.703Z,14.87
2019-05-20T06:47:58.414Z,16.45
2019-05-20T06:50:52.402Z,16.75
2019-05-20T06:53:27.103Z,15.95
2019-05-20T06:56:01.895Z,16.40
2019-05-20T06:58:36.598Z,17.27
2019-05-20T07:01:11.414Z,21.73
2019-05-20T07:03:46.191Z,18.82
2019-05-20T07:06:21.052Z,22.87
2019-05-20T07:08:55.743Z,20.70
2019-05-20T07:11:30.553Z,22.02
2019-05-20T07:14:07.703Z,18.67
2019-05-20T07:16:41.675Z,17.23
2019-05-20T07:19:16.438Z,16.07
2019-05-20T07:21:51.247Z,14.95
2019-05-20T07:24:26.012Z,14.23
2019-05-20T07:27:00.806Z,12.98
2019-05-20T07:29:35.499Z,19.80
2019-05-20T07:32:10.246Z,18.20
2019-05-20T07:34:45.009Z,12.45
2019-05-20T07:37:20.239Z,13.53
2019-05-20T07:39:55.015Z,12.30
2019-05-20T07:42:30.898Z,12.65
2019-05-20T07:45:07.544Z,18.42
2019-05-20T07:47:42.465Z,12.60
2019-05-20T07:50:18.226Z,11.65
2019-05-20T07:52:53.121Z,8.90
2019-05-20T07:55:30.860Z,11.25
2019-05-20T07:58:08.002Z,7.92
2019-05-20T08:00:42.753Z,7.47
2019-05-20T08:03:17.549Z,6.15
2019-05-20T08:05:52.303Z,8.58
2019-05-20T08:08:27.106Z,8.58
2019-05-20T08:11:01.863Z,7.12
2019-05-20T08:13:36.651Z,9.18
2019-05-20T08:16:11.406Z,4.30
2019-05-20T08:18:46.195Z,5.92
2019-05-20T08:21:20.960Z,6.05
2019-05-20T08:23:55.760Z,8.90
2019-05-20T08:26:30.564Z,5.28
2019-05-20T08:29:05.414Z,7.70
2019-05-20T08:31:40.102Z,7.87
2019-05-20T08:34:14.902Z,5.92
2019-05-20T08:36:49.661Z,8.10
2019-05-20T08:39:24.315Z,5.60
2019-05-20T08:41:59.074Z,4.97
2019-05-20T08:44:33.935Z,5.53
2019-05-20T08:47:08.658Z,6.22
2019-05-20T08:49:44.006Z,4.83
2019-05-20T08:52:18.877Z,4.30
2019-05-20T08:54:53.604Z,4.70
2019-05-20T08:57:28.291Z,6.17
2019-05-20T09:00:03.549Z,4.30
2019-05-20T09:02:38.317Z,6.05
2019-05-20T09:05:13.231Z,10.15
2019-05-20T09:08:01.508Z,4.42
2019-05-20T09:10:24.340Z,6.15
2019-05-20T09:12:59.079Z,5.47
2019-05-20T09:15:33.801Z,4.92
2019-05-20T09:18:08.494Z,4.78
2019-05-20T09:20:43.438Z,6.12
2019-05-20T09:23:18.163Z,4.87
2019-05-20T09:25:52.884Z,4.58
2019-05-20T09:28:27.651Z,4.25
2019-05-20T09:31:02.399Z,5.00
2019-05-20T09:33:38.198Z,5.30
2019-05-20T09:36:15.904Z,8.48
2019-05-20T09:38:53.773Z,9.35
2019-05-20T09:41:28.546Z,3.50
2019-05-20T09:44:03.299Z,3.83
2019-05-20T09:46:38.025Z,6.17
2019-05-20T09:49:12.811Z,6.15
2019-05-20T09:51:48.134Z,4.25
2019-05-20T09:54:25.771Z,4.50
2019-05-20T09:57:00.557Z,4.42
2019-05-20T09:59:43.404Z,4.85
2019-05-20T10:02:11.706Z,3.80
2019-05-20T10:04:46.451Z,3.50
2019-05-20T10:07:21.244Z,2.58
2019-05-20T10:09:55.998Z,4.95
2019-05-20T10:12:45.533Z,3.17
2019-05-20T10:15:07.807Z,2.95
2019-05-20T10:17:42.595Z,3.52
2019-05-20T10:20:17.628Z,2.70
2019-05-20T10:22:52.379Z,3.33
2019-05-20T10:25:27.064Z,2.77
2019-05-20T10:28:01.870Z,4.97
2019-05-20T10:30:38.102Z,6.45
2019-05-20T10:33:12.898Z,4.20
2019-05-20T10:35:47.604Z,3.02
2019-05-20T10:38:22.257Z,2.77
2019-05-20T10:40:56.972Z,5.20
2019-05-20T10:43:31.675Z,3.72
2019-05-20T10:46:06.435Z,2.58
2019-05-20T10:48:41.272Z,3.40
2019-05-20T10:51:16.031Z,3.08
2019-05-20T10:53:50.767Z,2.77
2019-05-20T10:56:25.522Z,3.20
2019-05-20T10:59:00.226Z,2.20
2019-05-20T11:01:34.998Z,4.53
2019-05-20T11:04:09.782Z,2.80
2019-05-20T11:06:44.537Z,3.22
2019-05-20T11:09:19.337Z,3.42
2019-05-20T11:11:53.948Z,5.05
2019-05-20T11:14:28.751Z,3.20
2019-05-20T11:17:03.591Z,5.45
2019-05-20T11:19:38.374Z,3.25
2019-05-20T11:22:13.146Z,4.17
2019-05-20T11:24:47.980Z,3.33
2019-05-20T11:27:22.542Z,2.40
2019-05-20T11:29:57.330Z,2.80
2019-05-20T11:32:32.094Z,2.90
2019-05-20T11:35:10.225Z,5.17
2019-05-20T11:37:44.911Z,3.40
2019-05-20T11:40:19.787Z,2.98
2019-05-20T11:42:54.403Z,5.70
2019-05-20T11:45:29.134Z,4.75
2019-05-20T11:48:03.951Z,3.98
2019-05-20T11:50:38.739Z,7.20
2019-05-20T11:53:13.440Z,4.62
2019-05-20T11:55:48.171Z,4.83
2019-05-20T11:58:22.872Z,11.10
2019-05-20T12:00:57.648Z,3.58
2019-05-20T12:03:32.219Z,14.30
2019-05-20T12:06:07.097Z,3.67
2019-05-20T12:08:41.830Z,5.95
2019-05-20T12:11:16.650Z,3.65
2019-05-20T12:13:51.387Z,2.60
2019-05-20T12:16:26.071Z,5.05
2019-05-20T12:19:00.754Z,1.92
2019-05-20T12:21:35.553Z,3.50
2019-05-20T12:24:10.343Z,3.17
2019-05-20T12:26:45.074Z,5.53
2019-05-20T12:29:19.699Z,4.30
2019-05-20T12:31:54.407Z,1.37
2019-05-20T12:34:29.167Z,1.35
2019-05-20T12:37:03.982Z,1.30
2019-05-20T12:39:38.670Z,2.55
2019-05-20T12:42:13.571Z,3.05
2019-05-20T12:44:48.276Z,1.42
2019-05-20T12:47:23.793Z,1.92
2019-05-20T12:49:58.490Z,0.70
2019-05-20T12:52:33.280Z,1.00
2019-05-20T12:55:10.084Z,2.00
2019-05-20T12:57:44.956Z,2.33
2019-05-20T13:00:20.343Z,1.90
2019-05-20T13:02:55.060Z,2.35
2019-05-20T13:05:29.819Z,1.65
2019-05-20T13:08:05.273Z,1.42
2019-05-20T13:10:40.332Z,2.25
2019-05-20T13:13:15.128Z,2.27
2019-05-20T13:15:49.814Z,1.57
2019-05-20T13:18:24.534Z,1.87
2019-05-20T13:20:59.293Z,2.08
2019-05-20T13:23:34.810Z,2.33
2019-05-20T13:26:09.562Z,1.80
2019-05-20T13:28:44.371Z,0.82
2019-05-20T13:31:19.121Z,1.70
2019-05-20T13:33:53.844Z,2.85
2019-05-20T13:36:28.537Z,1.30
2019-05-20T13:39:03.919Z,2.75
2019-05-20T13:41:38.687Z,2.08
2019-05-20T13:44:13.438Z,3.55
2019-05-20T13:46:48.156Z,3.27
2019-05-20T13:49:23.048Z,2.87
2019-05-20T13:51:57.781Z,1.17
2019-05-20T13:54:32.567Z,5.90
2019-05-20T13:57:07.255Z,1.62
2019-05-20T13:59:41.989Z,4.95
2019-05-20T14:02:18.237Z,5.67
2019-05-20T14:04:52.996Z,2.60
2019-05-20T14:07:27.758Z,2.98
2019-05-20T14:10:02.561Z,2.02
2019-05-20T14:12:37.302Z,4.65
2019-05-20T14:15:12.262Z,1.82
2019-05-20T14:17:47.181Z,7.22
2019-05-20T14:20:22.021Z,0.75
2019-05-20T14:22:56.909Z,0.90
2019-05-20T14:25:31.714Z,9.15
2019-05-20T14:28:06.461Z,3.15
2019-05-20T14:30:41.262Z,6.80
2019-05-20T14:33:16.068Z,5.67
2019-05-20T14:35:51.351Z,7.22
2019-05-20T14:38:26.139Z,6.00
2019-05-20T14:41:00.869Z,2.83
2019-05-20T14:43:35.649Z,4.30
2019-05-20T14:46:10.434Z,6.10
2019-05-20T14:48:45.208Z,12.70
2019-05-20T14:51:19.999Z,3.30
2019-05-20T14:53:54.703Z,3.65
2019-05-20T14:56:29.498Z,3.02
2019-05-20T14:59:04.254Z,2.47
2019-05-20T15:01:39.072Z,4.22
2019-05-20T15:04:13.761Z,1.62
2019-05-20T15:06:48.538Z,1.67
2019-05-20T15:09:23.255Z,2.67
2019-05-20T15:11:57.952Z,3.10
2019-05-20T15:14:32.717Z,1.87
2019-05-20T15:17:07.518Z,4.58
2019-05-20T15:19:42.205Z,1.07
2019-05-20T15:22:16.997Z,2.25
2019-05-20T15:24:51.796Z,1.82
2019-05-20T15:27:26.582Z,2.45
2019-05-20T15:30:01.378Z,2.22
2019-05-20T15:32:36.133Z,1.52
2019-05-20T15:35:10.983Z,1.57
2019-05-20T15:37:45.709Z,1.47
2019-05-20T15:40:24.180Z,2.08
2019-05-20T15:42:56.879Z,1.00
2019-05-20T15:45:31.692Z,1.50
2019-05-20T15:48:06.443Z,1.07
2019-05-20T15:50:41.309Z,2.12
2019-05-20T15:53:16.046Z,1.42
2019-05-20T15:55:50.825Z,2.37
2019-05-20T15:58:25.539Z,1.12
2019-05-20T16:01:00.229Z,1.65
2019-05-20T16:03:35.014Z,1.57
2019-05-20T16:06:09.733Z,1.10
2019-05-20T16:08:44.581Z,1.85
2019-05-20T16:11:19.189Z,1.12
2019-05-20T16:13:53.916Z,1.02
2019-05-20T16:16:28.610Z,1.82
2019-05-20T16:19:04.249Z,1.13
2019-05-20T16:21:39.034Z,1.27
2019-05-20T16:24:13.818Z,0.65
2019-05-20T16:26:49.745Z,1.55
2019-05-20T16:29:24.457Z,2.47
2019-05-20T16:31:59.218Z,3.30
2019-05-20T16:34:33.947Z,2.10
2019-05-20T16:37:08.714Z,1.60
2019-05-20T16:39:43.503Z,2.92
2019-05-20T16:42:19.294Z,1.42
2019-05-20T16:44:54.062Z,2.15
2019-05-20T16:47:28.768Z,3.05
2019-05-20T16:50:04.986Z,2.45
2019-05-20T16:52:40.182Z,2.22
2019-05-20T16:55:15.285Z,4.03
2019-05-20T16:57:50.054Z,1.85
2019-05-20T17:00:31.563Z,1.40
2019-05-20T17:03:01.294Z,1.17
2019-05-20T17:05:36.156Z,1.87
2019-05-20T17:08:11.026Z,1.92
2019-05-20T17:10:46.026Z,3.20
2019-05-20T17:13:20.739Z,0.85
2019-05-20T17:15:55.522Z,1.30
2019-05-20T17:18:30.285Z,1.15
2019-05-20T17:21:05.090Z,1.10
2019-05-20T17:23:41.155Z,2.92
2019-05-20T17:26:15.946Z,0.70
2019-05-20T17:28:50.697Z,1.55
2019-05-20T17:31:26.720Z,1.80
2019-05-20T17:34:01.757Z,6.28
2019-05-20T17:36:36.503Z,1.30
2019-05-20T17:39:11.231Z,2.62
2019-05-20T17:41:46.027Z,1.98
2019-05-20T17:44:20.801Z,1.42
2019-05-20T17:46:56.709Z,2.22
2019-05-20T17:49:31.656Z,1.90
2019-05-20T17:52:06.444Z,2.33
2019-05-20T17:54:41.145Z,1.95
2019-05-20T17:57:17.379Z,2.17
2019-05-20T17:59:52.143Z,2.22
2019-05-20T18:02:26.834Z,1.12
2019-05-20T18:05:03.795Z,2.25
2019-05-20T18:07:40.870Z,4.30
2019-05-20T18:10:18.386Z,4.25
2019-05-20T18:12:53.209Z,4.47
2019-05-20T18:15:27.946Z,1.92
2019-05-20T18:18:02.558Z,2.10
2019-05-20T18:20:37.279Z,2.40
2019-05-20T18:23:12.126Z,3.90
2019-05-20T18:25:46.807Z,2.60
2019-05-20T18:28:21.481Z,2.40
2019-05-20T18:30:57.471Z,4.90
2019-05-20T18:33:32.276Z,5.15
2019-05-20T18:36:07.033Z,4.90
2019-05-20T18:38:41.757Z,6.70
2019-05-20T18:41:18.083Z,5.12
2019-05-20T18:43:52.883Z,5.72
2019-05-20T18:46:27.588Z,4.42
2019-05-20T18:49:02.277Z,4.10
2019-05-20T18:51:36.958Z,2.80
2019-05-20T18:54:11.756Z,2.85
2019-05-20T18:56:46.439Z,18.77
2019-05-20T18:59:22.708Z,33.08
2019-05-20T19:02:05.023Z,7.95
2019-05-20T19:04:33.669Z,4.03
2019-05-20T19:07:08.439Z,5.72
2019-05-20T19:09:43.840Z,5.72
2019-05-20T19:12:20.199Z,3.25
2019-05-20T19:14:55.678Z,3.30
2019-05-20T19:17:30.452Z,10.75
2019-05-20T19:20:06.240Z,6.03
2019-05-20T19:22:40.924Z,14.45
2019-05-20T19:25:15.599Z,17.60
2019-05-20T19:27:50.712Z,9.85
2019-05-20T19:30:27.258Z,7.62
2019-05-20T19:33:02.014Z,10.65
2019-05-20T19:35:36.735Z,11.88
2019-05-20T19:38:11.495Z,13.13
2019-05-20T19:40:46.308Z,19.35
2019-05-20T19:43:21.054Z,20.80
2019-05-20T19:45:55.895Z,18.73
2019-05-20T19:48:31.248Z,16.57
2019-05-20T19:51:05.984Z,17.77
2019-05-20T19:53:40.669Z,18.65
2019-05-20T19:56:15.469Z,13.20
2019-05-20T19:58:51.869Z,14.63
2019-05-20T20:01:28.362Z,14.85
2019-05-20T20:04:04.465Z,16.20
2019-05-20T20:06:39.260Z,9.63
2019-05-20T20:09:14.016Z,15.58
2019-05-20T20:11:48.767Z,9.13
2019-05-20T20:14:23.535Z,12.85
2019-05-20T20:16:58.290Z,5.42
2019-05-20T20:19:32.907Z,4.20
2019-05-20T20:22:07.622Z,5.25
2019-05-20T20:24:42.356Z,9.33
2019-05-20T20:27:17.112Z,8.18
2019-05-20T20:29:51.884Z,4.53
2019-05-20T20:32:37.605Z,4.00
2019-05-20T20:35:03.267Z,4.60
2019-05-20T20:37:39.806Z,6.97
2019-05-20T20:40:14.771Z,6.35
2019-05-20T20:42:49.484Z,4.05
2019-05-20T20:45:24.245Z,5.55
2019-05-20T20:48:01.717Z,9.25
2019-05-20T20:50:36.411Z,9.23
2019-05-20T20:53:11.190Z,8.23
2019-05-20T20:55:45.871Z,8.43
2019-05-20T20:58:20.609Z,6.83
2019-05-20T21:00:55.283Z,10.80
2019-05-20T21:03:30.002Z,7.90
2019-05-20T21:06:04.759Z,6.08
2019-05-20T21:08:39.542Z,6.12
2019-05-20T21:11:15.765Z,9.45
2019-05-20T21:13:50.412Z,6.92
2019-05-20T21:16:25.173Z,7.35
2019-05-20T21:18:59.830Z,5.65
2019-05-20T21:21:34.590Z,6.37
2019-05-20T21:24:09.372Z,4.60
2019-05-20T21:26:44.078Z,4.85
2019-05-20T21:29:18.802Z,6.95
2019-05-20T21:31:53.491Z,4.75
2019-05-20T21:34:28.206Z,6.83
2019-05-20T21:37:02.982Z,12.35
2019-05-20T21:39:37.646Z,10.55
2019-05-20T21:42:12.381Z,10.90
2019-05-20T21:44:47.098Z,15.10
2019-05-20T21:47:21.786Z,15.88
2019-05-20T21:49:56.506Z,20.75
2019-05-20T21:52:31.122Z,9.65
2019-05-20T21:55:07.485Z,12.70
2019-05-20T21:57:42.171Z,6.67
2019-05-20T22:00:19.095Z,4.67
2019-05-20T22:02:53.729Z,4.90
2019-05-20T22:05:28.520Z,3.50
2019-05-20T22:08:04.226Z,6.97
2019-05-20T22:10:39.264Z,4.60
2019-05-20T22:13:13.951Z,4.37
2019-05-20T22:15:48.814Z,2.50
2019-05-20T22:18:23.663Z,3.12
2019-05-20T22:20:58.426Z,4.37
2019-05-20T22:23:34.750Z,4.47
2019-05-20T22:26:09.475Z,9.13
2019-05-20T22:28:44.078Z,3.90
2019-05-20T22:31:18.727Z,4.65
2019-05-20T22:33:53.487Z,5.08
2019-05-20T22:36:28.210Z,3.92
2019-05-20T22:39:04.010Z,3.55
2019-05-20T22:41:38.730Z,2.70
2019-05-20T22:44:13.439Z,3.52
2019-05-20T22:46:48.223Z,2.17
2019-05-20T22:49:22.861Z,1.85
2019-05-20T22:51:57.655Z,1.12
2019-05-20T22:54:32.413Z,3.62
2019-05-20T22:57:07.221Z,1.30
2019-05-20T22:59:41.891Z,2.37
2019-05-20T23:02:16.681Z,1.40
2019-05-20T23:04:51.931Z,6.55
2019-05-20T23:07:26.647Z,3.30
2019-05-20T23:10:01.395Z,1.40
2019-05-20T23:12:36.279Z,1.95
2019-05-20T23:15:11.109Z,4.92
2019-05-20T23:17:45.768Z,4.00
2019-05-20T23:20:20.518Z,3.70
2019-05-20T23:22:55.254Z,3.75
2019-05-20T23:25:29.938Z,3.33
2019-05-20T23:28:04.679Z,3.62
2019-05-20T23:30:39.398Z,5.70
2019-05-20T23:33:14.182Z,7.67
2019-05-20T23:35:48.877Z,9.93
2019-05-20T23:38:23.591Z,9.53
2019-05-20T23:40:58.374Z,4.97
2019-05-20T23:43:33.091Z,7.15
2019-05-20T23:46:07.780Z,5.03
2019-05-20T23:48:42.497Z,5.78
2019-05-20T23:51:17.114Z,5.72
2019-05-20T23:53:51.823Z,4.90
2019-05-20T23:56:26.502Z,4.95
2019-05-20T23:59:01.295Z,9.00
